Time;durP1;ratioP1;P1;durP2;ratioP2;P2;SDS_P1;SDS_P2;PMS_P1;PMS_P2;Temp;Humidity;BMP_temperature;BMP_pressure;BME280_temperature;BME280_humidity;BME280_pressure;Samples;Min_cycle;Max_cycle;Signal;HPM_P1;HPM_P2
2021/03/22 00:02:26;;;;;;;14.40;9.67;;;2.30;99.90;;;;;;6168714;28;20231;-77
2021/03/22 00:05:28;;;;;;;12.43;9.63;;;2.30;99.90;;;;;;6184988;28;20705;-77
2021/03/22 00:08:31;;;;;;;18.07;11.17;;;2.40;99.90;;;;;;6186245;28;20233;-77
2021/03/22 00:11:33;;;;;;;12.93;10.00;;;2.30;99.90;;;;;;6168524;28;20232;-77
2021/03/22 00:14:35;;;;;;;12.67;9.40;;;2.30;99.90;;;;;;6186212;28;20319;-77
2021/03/22 00:17:36;;;;;;;12.43;9.23;;;2.30;99.90;;;;;;6185676;28;20272;-77
2021/03/22 00:20:38;;;;;;;12.37;9.23;;;2.30;99.90;;;;;;6185273;28;20229;-77
2021/03/22 00:23:40;;;;;;;10.53;8.80;;;2.30;99.90;;;;;;6186025;28;20279;-77
2021/03/22 00:26:42;;;;;;;13.60;8.87;;;2.30;99.90;;;;;;6185445;28;20308;-77
2021/03/22 00:29:44;;;;;;;14.07;10.03;;;2.20;99.90;;;;;;6168875;28;20697;-77
2021/03/22 00:32:46;;;;;;;11.47;8.20;;;2.10;99.90;;;;;;6185450;28;20593;-77
2021/03/22 00:35:49;;;;;;;13.83;10.30;;;2.10;99.90;;;;;;6169104;28;20233;-77
2021/03/22 00:38:51;;;;;;;14.70;10.63;;;2.00;99.90;;;;;;6168812;28;20233;-77
2021/03/22 00:41:53;;;;;;;16.03;11.17;;;2.00;99.90;;;;;;6167241;28;20295;-77
2021/03/22 00:44:55;;;;;;;15.90;11.20;;;1.90;99.90;;;;;;6185501;28;20228;-77
2021/03/22 00:47:56;;;;;;;16.17;11.70;;;1.90;99.90;;;;;;6167603;28;20609;-77
2021/03/22 00:51:00;;;;;;;16.73;12.10;;;1.90;99.90;;;;;;6186303;28;20239;-77
2021/03/22 00:54:02;;;;;;;13.93;10.13;;;1.90;99.90;;;;;;6185271;28;20217;-77
2021/03/22 00:57:05;;;;;;;14.77;11.37;;;2.00;99.90;;;;;;6168388;28;20746;-77
2021/03/22 01:00:09;;;;;;;14.93;11.43;;;2.00;99.90;;;;;;6185284;28;20300;-77
2021/03/22 01:03:13;;;;;;;15.03;10.90;;;2.00;99.90;;;;;;6168407;28;20429;-77
2021/03/22 01:06:16;;;;;;;17.33;12.57;;;2.00;99.90;;;;;;6184863;28;20209;-77
2021/03/22 01:09:19;;;;;;;17.97;11.47;;;2.00;99.90;;;;;;6185250;28;20721;-77
2021/03/22 01:12:20;;;;;;;18.17;11.33;;;2.00;99.90;;;;;;6151858;28;20217;-77
2021/03/22 01:15:23;;;;;;;18.97;13.17;;;2.00;99.90;;;;;;6169111;28;20229;-77
2021/03/22 01:18:30;;;;;;;16.13;12.17;;;2.00;99.90;;;;;;6167995;28;20318;-77
2021/03/22 01:21:41;;;;;;;15.77;12.27;;;2.10;99.90;;;;;;6171206;28;20233;-77
2021/03/22 01:24:42;;;;;;;17.17;12.13;;;2.10;99.90;;;;;;6166772;28;20304;-77
2021/03/22 01:27:44;;;;;;;17.60;13.50;;;2.10;99.90;;;;;;6184668;28;20232;-77
2021/03/22 01:30:57;;;;;;;17.73;11.93;;;2.10;99.90;;;;;;6167701;28;20733;-77
2021/03/22 01:34:00;;;;;;;14.00;11.33;;;2.10;99.90;;;;;;6185267;28;20790;-77
2021/03/22 01:37:02;;;;;;;18.33;12.40;;;2.10;99.90;;;;;;6185425;28;20305;-77
2021/03/22 01:40:21;;;;;;;17.70;11.93;;;2.10;99.90;;;;;;6149409;28;20222;-77
2021/03/22 01:43:44;;;;;;;18.47;12.03;;;2.10;99.90;;;;;;6139056;28;20298;-77
2021/03/22 01:46:57;;;;;;;20.73;12.07;;;2.00;99.90;;;;;;6136917;28;20273;-77
2021/03/22 01:50:03;;;;;;;19.87;12.43;;;2.00;99.90;;;;;;6138425;28;20234;-78
2021/03/22 01:53:05;;;;;;;18.10;12.27;;;2.00;99.90;;;;;;6140979;28;20284;-78
2021/03/22 01:56:09;;;;;;;19.80;12.67;;;2.10;99.90;;;;;;6139543;28;20270;-78
2021/03/22 01:59:13;;;;;;;16.03;11.57;;;2.10;99.90;;;;;;6140314;28;20708;-78
2021/03/22 02:02:15;;;;;;;15.00;10.70;;;2.00;99.90;;;;;;6139640;28;20266;-78
2021/03/22 02:05:24;;;;;;;15.43;11.10;;;2.00;99.90;;;;;;6141019;28;20326;-78
2021/03/22 02:08:29;;;;;;;14.30;10.70;;;2.00;99.90;;;;;;6140111;28;20266;-77
2021/03/22 02:11:33;;;;;;;16.40;10.67;;;2.00;99.90;;;;;;6139854;28;20579;-78
2021/03/22 02:14:35;;;;;;;16.33;11.47;;;2.00;99.90;;;;;;6139995;28;20245;-78
2021/03/22 02:18:04;;;;;;;15.00;10.50;;;2.00;99.90;;;;;;6139205;28;20318;-78
2021/03/22 02:21:40;;;;;;;17.67;11.67;;;2.00;99.90;;;;;;6138126;28;20304;-77
2021/03/22 02:25:08;;;;;;;16.37;11.73;;;2.00;99.90;;;;;;6141300;28;20628;-78
2021/03/22 02:28:28;;;;;;;19.13;10.60;;;2.00;99.90;;;;;;6140578;28;20254;-78
2021/03/22 02:32:04;;;;;;;16.50;10.93;;;2.10;99.90;;;;;;6139948;28;20241;-77
2021/03/22 02:35:19;;;;;;;16.50;11.70;;;2.10;99.90;;;;;;6066204;29;20259;-77
2021/03/22 02:38:44;;;;;;;16.27;11.63;;;2.10;99.90;;;;;;6083641;29;20630;-77
2021/03/22 02:41:52;;;;;;;13.53;9.90;;;2.10;99.90;;;;;;6089453;29;20355;-77
2021/03/22 02:44:55;;;;;;;13.40;10.10;;;2.10;99.90;;;;;;6089874;29;20232;-77
2021/03/22 02:47:59;;;;;;;16.37;10.07;;;2.10;99.90;;;;;;6089602;29;20235;-78
2021/03/22 02:51:20;;;;;;;12.03;9.03;;;2.10;99.90;;;;;;6086980;29;20239;-77
2021/03/22 02:55:02;;;;;;;14.40;9.70;;;2.10;99.90;;;;;;6072431;29;20287;-77
2021/03/22 02:58:07;;;;;;;13.53;9.63;;;2.10;99.90;;;;;;6040640;29;20233;-77
2021/03/22 03:01:29;;;;;;;13.33;9.03;;;2.10;99.90;;;;;;6039849;29;20243;-77
2021/03/22 03:04:36;;;;;;;12.40;9.17;;;2.00;99.90;;;;;;6037916;29;20237;-77
2021/03/22 03:07:38;;;;;;;12.63;8.93;;;2.00;99.90;;;;;;6039849;29;20264;-77
2021/03/22 03:10:40;;;;;;;14.80;10.00;;;1.90;99.90;;;;;;6051558;29;20234;-77
2021/03/22 03:13:41;;;;;;;14.10;9.30;;;1.80;99.90;;;;;;6090421;29;20333;-77
2021/03/22 03:16:43;;;;;;;13.47;7.97;;;1.70;99.90;;;;;;6090866;29;20297;-77
2021/03/22 03:19:45;;;;;;;10.30;7.53;;;1.70;99.90;;;;;;6090717;29;20240;-77
2021/03/22 03:22:47;;;;;;;9.37;7.57;;;1.70;99.90;;;;;;6090881;29;20239;-77
2021/03/22 03:25:49;;;;;;;12.17;7.23;;;1.70;99.90;;;;;;6074887;29;20232;-77
2021/03/22 03:28:50;;;;;;;8.97;6.93;;;1.60;99.90;;;;;;6089535;29;20235;-77
2021/03/22 03:31:52;;;;;;;11.77;7.93;;;1.60;99.90;;;;;;6115479;28;20226;-77
2021/03/22 03:34:55;;;;;;;9.63;7.40;;;1.50;99.90;;;;;;6138452;28;20226;-77
2021/03/22 03:37:58;;;;;;;10.37;5.97;;;1.50;99.90;;;;;;6139508;28;20790;-77
2021/03/22 03:40:59;;;;;;;8.67;5.60;;;1.50;99.90;;;;;;6137678;28;20230;-77
2021/03/22 03:44:04;;;;;;;7.77;5.83;;;1.50;99.90;;;;;;6140449;28;20230;-77
2021/03/22 03:47:07;;;;;;;10.73;7.17;;;1.50;99.90;;;;;;6122488;28;20704;-77
2021/03/22 03:50:13;;;;;;;11.30;7.13;;;1.50;99.90;;;;;;6137957;28;20235;-77
2021/03/22 03:53:15;;;;;;;10.33;6.03;;;1.40;99.90;;;;;;6139530;28;20317;-77
2021/03/22 03:56:17;;;;;;;8.57;6.17;;;1.30;99.90;;;;;;6139152;28;20687;-76
2021/03/22 03:59:19;;;;;;;8.17;5.63;;;1.20;99.90;;;;;;6140110;28;20233;-77
2021/03/22 04:02:20;;;;;;;7.23;5.40;;;1.10;99.90;;;;;;6138306;28;20234;-77
2021/03/22 04:05:25;;;;;;;8.23;5.10;;;1.10;99.90;;;;;;6137501;28;20230;-77
2021/03/22 04:08:29;;;;;;;9.90;6.17;;;1.00;99.90;;;;;;6138255;28;20359;-77
2021/03/22 04:11:40;;;;;;;8.33;5.30;;;1.00;99.90;;;;;;6138982;28;20237;-77
2021/03/22 04:14:42;;;;;;;9.10;6.07;;;1.00;99.90;;;;;;6137887;28;20227;-77
2021/03/22 04:17:43;;;;;;;9.27;4.50;;;1.00;99.90;;;;;;6138495;28;20339;-77
2021/03/22 04:20:45;;;;;;;8.33;5.10;;;1.00;99.90;;;;;;6137595;28;20727;-77
2021/03/22 04:23:49;;;;;;;7.10;4.63;;;1.10;99.90;;;;;;6138913;28;20238;-77
2021/03/22 04:26:50;;;;;;;7.97;4.13;;;1.10;99.90;;;;;;6139806;28;20241;-77
2021/03/22 04:29:52;;;;;;;7.03;3.63;;;1.00;99.90;;;;;;6137538;28;20573;-77
2021/03/22 04:32:54;;;;;;;4.27;2.83;;;1.00;99.90;;;;;;6138953;28;20230;-77
2021/03/22 04:35:56;;;;;;;5.17;3.13;;;1.00;99.90;;;;;;6135719;28;20309;-77
2021/03/22 04:38:58;;;;;;;3.90;2.87;;;1.00;99.90;;;;;;6131010;28;20270;-77
2021/03/22 04:42:00;;;;;;;5.77;3.10;;;1.10;99.90;;;;;;6161478;28;20244;-77
2021/03/22 04:45:03;;;;;;;5.43;2.87;;;1.10;99.90;;;;;;6161366;28;20233;-77
2021/03/22 04:48:05;;;;;;;4.70;2.50;;;1.10;99.90;;;;;;6145678;28;20216;-77
2021/03/22 04:51:07;;;;;;;3.23;2.50;;;1.10;99.90;;;;;;6143890;28;20243;-77
2021/03/22 04:54:09;;;;;;;3.33;2.30;;;1.10;99.90;;;;;;6160112;28;20209;-77
2021/03/22 04:57:20;;;;;;;4.13;2.50;;;1.00;99.90;;;;;;6144560;28;20691;-77
2021/03/22 05:00:44;;;;;;;4.10;2.37;;;1.00;99.90;;;;;;6161108;28;20700;-77
2021/03/22 05:03:46;;;;;;;3.30;2.30;;;1.00;99.90;;;;;;6176604;28;20305;-77
2021/03/22 05:06:48;;;;;;;5.03;2.10;;;1.10;99.90;;;;;;6184635;28;20225;-77
2021/03/22 05:09:50;;;;;;;4.60;2.13;;;1.20;99.90;;;;;;6167414;28;20249;-77
2021/03/22 05:12:52;;;;;;;3.57;2.33;;;1.20;99.90;;;;;;6184843;28;20604;-77
2021/03/22 05:15:54;;;;;;;4.17;2.00;;;1.20;99.90;;;;;;6168099;28;20260;-77
2021/03/22 05:18:56;;;;;;;3.00;1.90;;;1.20;99.90;;;;;;6168416;28;20221;-77
2021/03/22 05:21:59;;;;;;;4.40;1.80;;;1.30;99.90;;;;;;6167271;28;20224;-77
2021/03/22 05:25:01;;;;;;;4.87;2.10;;;1.30;99.90;;;;;;6168364;28;20372;-77
2021/03/22 05:28:04;;;;;;;3.43;1.97;;;1.30;99.90;;;;;;6183938;28;20788;-77
2021/03/22 05:31:07;;;;;;;3.43;2.37;;;1.40;99.90;;;;;;6185307;28;20234;-77
2021/03/22 05:34:10;;;;;;;3.77;2.00;;;1.40;99.90;;;;;;6183711;28;20221;-77
2021/03/22 05:37:11;;;;;;;4.07;1.90;;;1.50;99.90;;;;;;6166795;28;20275;-77
2021/03/22 05:40:33;;;;;;;3.67;1.90;;;1.50;99.90;;;;;;6183930;28;20229;-77
2021/03/22 05:43:41;;;;;;;1.33;1.23;;;1.60;99.90;;;;;;6184131;28;20725;-77
2021/03/22 05:46:57;;;;;;;2.43;2.00;;;1.60;99.90;;;;;;6166957;28;20369;-77
2021/03/22 05:50:23;;;;;;;2.80;1.90;;;1.60;99.90;;;;;;6168902;28;20233;-77
2021/03/22 05:53:34;;;;;;;2.20;1.60;;;1.70;99.90;;;;;;6184402;28;20237;-77
2021/03/22 05:57:08;;;;;;;5.47;2.10;;;1.70;99.90;;;;;;6152241;28;20841;-77
2021/03/22 06:00:17;;;;;;;3.90;1.90;;;1.80;99.90;;;;;;6165576;28;20308;-77
2021/03/22 06:03:19;;;;;;;2.90;1.93;;;1.80;99.90;;;;;;6166247;28;20333;-77
2021/03/22 06:06:28;;;;;;;3.27;1.43;;;1.80;99.90;;;;;;6183547;28;20259;-77
2021/03/22 06:09:44;;;;;;;2.10;1.73;;;1.90;99.90;;;;;;6166587;28;20360;-77
2021/03/22 06:12:56;;;;;;;1.93;1.73;;;1.80;99.90;;;;;;6184797;28;20229;-77
2021/03/22 06:16:08;;;;;;;2.63;2.13;;;1.90;99.90;;;;;;6183381;28;20661;-78
2021/03/22 06:19:15;;;;;;;5.17;2.50;;;2.00;99.90;;;;;;6166771;28;20335;-77
2021/03/22 06:22:28;;;;;;;4.00;2.17;;;2.10;99.90;;;;;;6182717;28;20699;-77
2021/03/22 06:25:33;;;;;;;3.47;1.90;;;2.10;99.90;;;;;;6182011;28;20388;-77
2021/03/22 06:28:38;;;;;;;2.67;2.40;;;2.10;99.90;;;;;;6183581;28;20282;-77
2021/03/22 06:31:41;;;;;;;2.87;2.57;;;2.20;99.90;;;;;;6183054;28;20256;-77
2021/03/22 06:34:57;;;;;;;3.17;2.10;;;2.20;99.90;;;;;;6157035;28;20273;-77
2021/03/22 06:37:59;;;;;;;5.13;2.20;;;2.20;99.90;;;;;;6156618;28;20229;-77
2021/03/22 06:41:29;;;;;;;5.17;2.57;;;2.20;99.90;;;;;;6149286;28;20225;-77
2021/03/22 06:44:33;;;;;;;3.33;2.33;;;2.20;99.90;;;;;;6181589;28;20251;-77
2021/03/22 06:47:36;;;;;;;3.43;2.30;;;2.20;99.90;;;;;;6165457;28;20710;-77
2021/03/22 06:50:38;;;;;;;3.30;2.00;;;2.20;99.90;;;;;;6165518;28;20228;-77
2021/03/22 06:53:53;;;;;;;4.37;2.30;;;2.20;99.90;;;;;;6166174;28;20225;-77
2021/03/22 06:57:06;;;;;;;4.23;2.40;;;2.20;99.90;;;;;;6165764;28;20218;-77
2021/03/22 07:00:18;;;;;;;3.60;2.10;;;2.20;99.90;;;;;;6165782;28;20310;-77
2021/03/22 07:03:26;;;;;;;2.60;2.13;;;2.30;99.90;;;;;;6165420;28;20261;-77
2021/03/22 07:06:28;;;;;;;2.10;1.83;;;2.30;99.90;;;;;;6182296;28;20233;-77
2021/03/22 07:09:32;;;;;;;3.47;2.07;;;2.30;99.90;;;;;;6182553;28;20592;-77
2021/03/22 07:12:38;;;;;;;2.53;2.00;;;2.30;99.90;;;;;;6165802;28;20232;-77
2021/03/22 07:15:40;;;;;;;3.40;2.07;;;2.30;99.90;;;;;;6182709;28;20251;-77
2021/03/22 07:19:02;;;;;;;3.27;1.93;;;2.30;99.90;;;;;;6182816;28;20224;-77
2021/03/22 07:22:17;;;;;;;5.37;2.20;;;2.40;99.90;;;;;;6164842;28;20237;-77
2021/03/22 07:25:35;;;;;;;3.90;2.10;;;2.40;99.90;;;;;;6149395;28;20225;-77
2021/03/22 07:28:59;;;;;;;4.63;1.93;;;2.50;99.90;;;;;;6183806;28;20241;-77
2021/03/22 07:32:39;;;;;;;2.53;1.73;;;2.50;99.90;;;;;;6166199;28;20356;-77
2021/03/22 07:36:20;;;;;;;4.07;2.13;;;2.60;99.90;;;;;;6181554;28;20237;-77
2021/03/22 07:39:37;;;;;;;2.43;1.60;;;2.80;99.90;;;;;;6107513;29;21496;-77
2021/03/22 07:43:15;;;;;;;3.07;1.40;;;2.80;99.90;;;;;;6091870;29;20243;-77
2021/03/22 07:46:32;;;;;;;3.70;1.97;;;2.90;99.90;;;;;;6107659;29;20282;-77
2021/03/22 07:49:53;;;;;;;6.97;3.00;;;3.10;99.90;;;;;;6077441;29;20228;-77
2021/03/22 07:52:57;;;;;;;3.37;1.60;;;3.30;99.90;;;;;;6109067;29;20235;-77
2021/03/22 07:56:11;;;;;;;4.07;1.90;;;3.40;99.90;;;;;;6094457;29;20239;-77
2021/03/22 07:59:38;;;;;;;4.80;2.03;;;3.60;99.90;;;;;;6112695;29;20666;-77
2021/03/22 08:02:59;;;;;;;4.93;2.07;;;3.80;99.90;;;;;;6096464;29;20264;-77
2021/03/22 08:06:41;;;;;;;3.17;1.90;;;3.90;99.90;;;;;;6111701;29;20235;-77
2021/03/22 08:10:06;;;;;;;4.97;2.40;;;4.20;99.90;;;;;;6096844;29;20310;-78
2021/03/22 08:13:44;;;;;;;3.53;1.87;;;4.40;99.90;;;;;;6121027;28;20759;-78
2021/03/22 08:16:54;;;;;;;5.70;2.27;;;4.60;99.90;;;;;;6162809;28;20229;-78
2021/03/22 08:20:20;;;;;;;4.70;1.83;;;4.70;99.90;;;;;;6163060;28;20601;-78
2021/03/22 08:23:34;;;;;;;4.43;1.90;;;4.80;99.90;;;;;;6136119;28;20242;-78
2021/03/22 08:26:44;;;;;;;2.87;1.90;;;5.00;99.90;;;;;;6147154;28;20272;-78
2021/03/22 08:30:17;;;;;;;2.93;1.80;;;5.00;99.90;;;;;;6163831;28;20621;-77
2021/03/22 08:33:29;;;;;;;2.40;1.50;;;5.00;99.90;;;;;;6137590;28;20285;-77
2021/03/22 08:36:45;;;;;;;2.43;1.50;;;4.80;99.90;;;;;;6149781;28;20316;-78
2021/03/22 08:40:27;;;;;;;3.90;1.50;;;4.70;99.90;;;;;;6153955;28;20267;-78
2021/03/22 08:43:49;;;;;;;2.17;1.37;;;4.50;99.90;;;;;;6127969;28;20611;-78
2021/03/22 08:47:05;;;;;;;3.20;1.53;;;4.60;99.50;;;;;;6140110;28;20600;-78
2021/03/22 08:50:17;;;;;;;3.10;1.70;;;4.60;98.90;;;;;;6138561;28;20598;-78
2021/03/22 08:53:23;;;;;;;3.30;1.50;;;4.60;98.80;;;;;;6140281;28;20234;-78
2021/03/22 08:56:32;;;;;;;3.23;1.70;;;4.60;97.80;;;;;;6139894;28;20230;-77
2021/03/22 08:59:36;;;;;;;1.57;1.33;;;4.40;98.80;;;;;;6137767;28;20605;-78
2021/03/22 09:02:39;;;;;;;3.10;1.53;;;4.30;98.20;;;;;;6131137;28;20717;-78
2021/03/22 09:06:02;;;;;;;2.10;1.30;;;4.20;98.50;;;;;;6099726;28;20234;-78
2021/03/22 09:09:29;;;;;;;2.53;1.33;;;4.20;99.10;;;;;;6098276;28;20350;-78
2021/03/22 09:12:32;;;;;;;2.10;1.47;;;4.30;97.20;;;;;;6114437;28;20648;-78
2021/03/22 09:15:39;;;;;;;3.00;1.43;;;4.40;97.70;;;;;;6097439;28;20302;-78
2021/03/22 09:19:20;;;;;;;3.97;1.90;;;4.60;97.70;;;;;;6129509;28;20783;-77
2021/03/22 09:22:25;;;;;;;2.33;1.43;;;4.70;99.40;;;;;;6134509;28;20250;-78
2021/03/22 09:25:49;;;;;;;2.27;1.63;;;4.70;98.00;;;;;;6138799;28;20711;-77
2021/03/22 09:28:54;;;;;;;2.10;1.60;;;4.70;97.50;;;;;;6137393;28;20242;-78
2021/03/22 09:31:55;;;;;;;4.17;1.60;;;4.70;96.90;;;;;;6138986;28;20292;-77
2021/03/22 09:34:58;;;;;;;1.70;1.40;;;4.60;97.60;;;;;;6138129;28;20231;-78
2021/03/22 09:38:22;;;;;;;1.40;1.20;;;4.50;97.10;;;;;;6119852;29;20223;-78
2021/03/22 09:42:00;;;;;;;2.37;1.40;;;4.40;95.40;;;;;;6156774;28;20230;-77
2021/03/22 09:45:16;;;;;;;2.90;1.07;;;4.20;95.70;;;;;;6144864;28;20257;-77
2021/03/22 09:48:20;;;;;;;4.17;1.10;;;4.00;96.40;;;;;;6143203;28;20210;-77
2021/03/22 09:51:30;;;;;;;4.43;1.67;;;3.90;96.60;;;;;;6142396;28;20270;-78
2021/03/22 09:54:41;;;;;;;2.27;1.00;;;3.90;97.90;;;;;;6160522;28;20229;-78
2021/03/22 09:57:44;;;;;;;2.47;1.17;;;3.90;96.90;;;;;;6144003;28;20276;-77
2021/03/22 10:00:48;;;;;;;1.57;0.90;;;3.90;96.00;;;;;;6159014;28;20238;-78
2021/03/22 10:04:13;;;;;;;1.87;1.23;;;4.10;97.10;;;;;;6143324;28;20238;-78
2021/03/22 10:07:30;;;;;;;2.70;1.17;;;4.80;97.10;;;;;;6159030;28;20373;-78
2021/03/22 10:10:37;;;;;;;4.20;0.90;;;5.40;88.30;;;;;;6160049;28;20238;-78
2021/03/22 10:13:44;;;;;;;0.87;0.80;;;5.80;89.40;;;;;;6159964;28;20234;-78
2021/03/22 10:16:50;;;;;;;1.53;0.63;;;6.20;90.10;;;;;;6159020;28;20605;-77
2021/03/22 10:19:59;;;;;;;1.37;0.60;;;6.50;84.70;;;;;;6159768;28;20242;-77
2021/03/22 10:23:17;;;;;;;0.90;0.60;;;6.40;87.60;;;;;;6142706;28;20319;-77
2021/03/22 10:26:36;;;;;;;2.50;0.90;;;6.10;80.80;;;;;;6143698;28;20731;-77
2021/03/22 10:29:38;;;;;;;5.30;1.20;;;5.60;79.40;;;;;;6142911;28;20243;-77
2021/03/22 10:33:01;;;;;;;4.53;1.20;;;5.30;90.60;;;;;;6166242;28;20246;-77
2021/03/22 10:36:05;;;;;;;3.67;1.67;;;5.30;94.30;;;;;;6166591;28;20224;-77
2021/03/22 10:39:18;;;;;;;1.67;1.03;;;5.20;95.40;;;;;;6183087;28;20582;-77
2021/03/22 10:42:37;;;;;;;1.60;1.13;;;5.00;96.90;;;;;;6165655;28;20291;-77
2021/03/22 10:45:41;;;;;;;2.70;1.20;;;5.10;97.90;;;;;;6183384;28;20708;-77
2021/03/22 10:48:44;;;;;;;3.17;1.27;;;5.20;97.50;;;;;;6183957;28;20246;-77
2021/03/22 10:51:51;;;;;;;2.30;1.27;;;5.40;96.40;;;;;;6167419;28;20604;-77
2021/03/22 10:54:53;;;;;;;1.90;1.27;;;5.60;97.40;;;;;;6166059;28;20701;-77
2021/03/22 10:57:57;;;;;;;2.67;1.40;;;5.90;95.40;;;;;;6182848;28;20705;-77
2021/03/22 11:01:05;;;;;;;2.60;1.80;;;6.40;93.50;;;;;;6180554;28;20228;-77
2021/03/22 11:04:15;;;;;;;4.20;1.60;;;6.90;94.60;;;;;;6165108;28;20233;-77
2021/03/22 11:07:25;;;;;;;3.13;1.40;;;7.30;92.20;;;;;;6182348;28;20241;-77
2021/03/22 11:10:28;;;;;;;3.47;1.47;;;7.70;90.70;;;;;;6183811;28;20240;-77
2021/03/22 11:13:35;;;;;;;2.60;1.60;;;7.90;82.00;;;;;;6165709;28;20239;-77
2021/03/22 11:16:46;;;;;;;3.47;1.80;;;8.30;83.30;;;;;;6181787;28;20238;-77
2021/03/22 11:19:50;;;;;;;2.83;1.93;;;8.70;82.10;;;;;;6182877;28;20233;-77
2021/03/22 11:22:52;;;;;;;3.00;2.10;;;9.00;78.70;;;;;;6165883;28;20365;-77
2021/03/22 11:25:56;;;;;;;3.33;1.97;;;9.20;77.70;;;;;;6164960;28;20295;-77
2021/03/22 11:29:23;;;;;;;5.30;2.00;;;9.10;73.10;;;;;;6182580;28;20706;-78
2021/03/22 11:32:32;;;;;;;3.97;2.00;;;9.00;68.40;;;;;;6170347;28;20233;-77
2021/03/22 11:35:35;;;;;;;3.13;2.00;;;8.70;68.90;;;;;;6186697;28;20229;-77
2021/03/22 11:38:56;;;;;;;2.47;1.67;;;8.50;67.20;;;;;;6186392;28;20738;-77
2021/03/22 11:41:58;;;;;;;1.70;1.60;;;8.30;69.70;;;;;;6139945;28;20238;-77
2021/03/22 11:45:19;;;;;;;5.03;1.80;;;7.90;67.80;;;;;;6139778;28;20657;-77
2021/03/22 11:48:21;;;;;;;3.37;1.70;;;7.60;66.20;;;;;;6138252;28;20220;-77
2021/03/22 11:51:24;;;;;;;4.43;2.27;;;7.40;69.90;;;;;;6140266;28;20234;-77
2021/03/22 11:54:54;;;;;;;4.53;1.80;;;7.20;70.50;;;;;;6138033;28;20596;-77
2021/03/22 11:57:57;;;;;;;2.70;1.57;;;7.00;67.60;;;;;;6138672;28;20241;-76
2021/03/22 12:01:20;;;;;;;2.57;1.27;;;6.80;70.70;;;;;;6137717;28;20793;-77
2021/03/22 12:04:34;;;;;;;3.00;1.60;;;6.50;66.70;;;;;;6138158;28;20716;-77
2021/03/22 12:07:44;;;;;;;1.80;1.30;;;6.20;68.90;;;;;;6140623;28;20242;-77
2021/03/22 12:10:45;;;;;;;2.80;1.33;;;6.10;67.80;;;;;;6138961;28;20234;-77
2021/03/22 12:13:53;;;;;;;3.97;1.80;;;5.90;71.30;;;;;;6137552;28;20236;-77
2021/03/22 12:17:00;;;;;;;1.83;1.13;;;5.80;70.70;;;;;;6137627;28;20320;-77
2021/03/22 12:20:05;;;;;;;1.93;1.30;;;5.70;67.60;;;;;;6137977;28;20241;-77
2021/03/22 12:23:08;;;;;;;2.30;1.13;;;5.80;68.40;;;;;;6139142;28;20229;-76
2021/03/22 12:26:15;;;;;;;3.10;1.37;;;6.00;70.00;;;;;;6137357;28;20230;-76
2021/03/22 12:29:17;;;;;;;1.87;1.33;;;6.10;64.90;;;;;;6139269;28;20316;-77
2021/03/22 12:32:24;;;;;;;2.17;1.30;;;6.10;61.10;;;;;;6138130;28;20348;-77
2021/03/22 12:35:39;;;;;;;2.10;1.13;;;6.10;62.90;;;;;;6137884;28;20238;-77
2021/03/22 12:38:40;;;;;;;2.00;0.87;;;6.10;64.90;;;;;;6136801;28;20546;-77
2021/03/22 12:41:42;;;;;;;5.37;1.07;;;6.30;63.80;;;;;;6170905;28;20238;-77
2021/03/22 12:44:45;;;;;;;3.87;1.30;;;6.40;67.10;;;;;;6189748;28;20320;-77
2021/03/22 12:47:48;;;;;;;1.90;1.30;;;6.60;64.20;;;;;;6189615;28;20233;-77
2021/03/22 12:50:50;;;;;;;2.17;1.20;;;6.80;64.80;;;;;;6168860;28;20240;-77
2021/03/22 12:53:52;;;;;;;1.67;0.97;;;6.90;63.50;;;;;;6152937;28;20239;-77
2021/03/22 12:56:54;;;;;;;3.80;1.20;;;7.00;61.70;;;;;;6152597;28;20239;-77
2021/03/22 12:59:57;;;;;;;2.10;1.00;;;7.10;60.70;;;;;;6167883;28;20701;-77
2021/03/22 13:02:59;;;;;;;2.50;1.40;;;7.20;57.10;;;;;;6184020;28;20236;-77
2021/03/22 13:06:02;;;;;;;4.13;1.50;;;7.90;58.60;;;;;;6151244;28;20217;-77
2021/03/22 13:09:04;;;;;;;2.53;1.20;;;8.50;60.00;;;;;;6168138;28;20241;-77
2021/03/22 13:12:16;;;;;;;2.53;1.63;;;9.00;57.90;;;;;;6184763;28;20591;-77
2021/03/22 13:15:45;;;;;;;2.40;1.60;;;8.80;54.20;;;;;;6168045;28;20213;-77
2021/03/22 13:18:47;;;;;;;3.53;2.10;;;8.40;57.30;;;;;;6148007;28;20256;-77
2021/03/22 13:21:50;;;;;;;3.43;2.33;;;8.00;57.80;;;;;;6167342;28;20717;-77
2021/03/22 13:24:54;;;;;;;2.30;1.77;;;7.60;57.90;;;;;;6167307;28;20721;-77
2021/03/22 13:27:56;;;;;;;2.60;1.90;;;7.50;58.70;;;;;;6166584;28;20311;-77
2021/03/22 13:31:01;;;;;;;5.33;2.00;;;7.50;61.60;;;;;;6166725;28;20680;-77
2021/03/22 13:34:04;;;;;;;2.67;1.47;;;7.50;60.00;;;;;;6167997;28;20229;-76
2021/03/22 13:37:08;;;;;;;2.83;1.70;;;7.60;60.70;;;;;;6166477;28;20228;-77
2021/03/22 13:40:11;;;;;;;3.63;1.67;;;8.00;59.00;;;;;;6182376;28;20475;-77
2021/03/22 13:43:14;;;;;;;2.63;1.60;;;7.90;58.00;;;;;;6182811;28;20265;-77
2021/03/22 13:46:16;;;;;;;4.30;2.30;;;7.60;57.90;;;;;;6166199;28;20292;-77
2021/03/22 13:49:19;;;;;;;2.53;1.60;;;7.20;60.80;;;;;;6183859;28;20269;-76
2021/03/22 13:52:24;;;;;;;4.30;1.87;;;7.10;64.10;;;;;;6183574;28;20236;-76
2021/03/22 13:55:27;;;;;;;2.47;1.63;;;7.10;63.70;;;;;;6167049;28;20248;-76
2021/03/22 13:58:30;;;;;;;3.60;1.70;;;7.60;62.50;;;;;;6166522;28;20231;-76
2021/03/22 14:01:32;;;;;;;3.97;1.80;;;8.40;60.10;;;;;;6165320;28;20283;-76
2021/03/22 14:04:34;;;;;;;2.00;1.57;;;8.90;58.90;;;;;;6166155;28;20237;-76
2021/03/22 14:07:37;;;;;;;5.83;2.20;;;8.90;58.20;;;;;;6165872;28;20233;-77
2021/03/22 14:10:38;;;;;;;3.63;1.90;;;8.30;57.30;;;;;;6183731;28;20240;-77
2021/03/22 14:13:40;;;;;;;3.27;1.80;;;7.70;59.90;;;;;;6183496;28;20243;-77
2021/03/22 14:16:42;;;;;;;2.57;1.70;;;7.30;58.70;;;;;;6165284;28;20276;-77
2021/03/22 14:19:44;;;;;;;4.27;2.10;;;7.10;59.80;;;;;;6184121;28;20249;-77
2021/03/22 14:22:48;;;;;;;4.57;2.20;;;6.90;57.90;;;;;;6183021;28;20236;-77
2021/03/22 14:25:50;;;;;;;2.70;1.60;;;7.00;58.90;;;;;;6166064;28;20659;-77
2021/03/22 14:28:52;;;;;;;6.20;1.90;;;7.10;58.40;;;;;;6182836;28;20329;-76
2021/03/22 14:31:54;;;;;;;4.13;1.80;;;7.30;60.00;;;;;;6182893;28;20640;-76
2021/03/22 14:34:56;;;;;;;4.37;1.80;;;7.60;60.50;;;;;;6166636;28;20240;-77
2021/03/22 14:38:01;;;;;;;3.50;1.73;;;7.70;60.20;;;;;;6182417;28;20225;-77
2021/03/22 14:41:03;;;;;;;4.97;1.90;;;7.60;58.80;;;;;;6165365;28;20233;-77
2021/03/22 14:44:05;;;;;;;3.00;2.03;;;7.20;59.50;;;;;;6183866;28;20315;-77
2021/03/22 14:47:08;;;;;;;3.77;2.27;;;6.70;68.30;;;;;;6183852;28;20228;-77
2021/03/22 14:50:10;;;;;;;5.10;2.57;;;5.90;84.50;;;;;;6164739;28;20783;-77
2021/03/22 14:53:12;;;;;;;7.33;2.10;;;5.20;93.30;;;;;;6182456;28;20233;-77
2021/03/22 14:56:15;;;;;;;3.30;2.00;;;4.80;97.20;;;;;;6165048;28;20699;-77
2021/03/22 14:59:18;;;;;;;3.90;1.80;;;4.70;99.90;;;;;;6182272;28;20237;-77
2021/03/22 15:02:21;;;;;;;4.03;2.27;;;4.60;99.90;;;;;;6164676;28;20609;-77
2021/03/22 15:05:25;;;;;;;3.10;1.80;;;4.60;99.90;;;;;;6164484;28;20234;-77
2021/03/22 15:08:27;;;;;;;2.43;1.40;;;4.70;97.30;;;;;;6182505;28;20219;-77
2021/03/22 15:11:29;;;;;;;3.30;1.40;;;4.90;95.40;;;;;;6183124;28;20223;-77
2021/03/22 15:14:30;;;;;;;2.57;1.10;;;5.10;93.40;;;;;;6182697;28;20239;-77
2021/03/22 15:17:32;;;;;;;2.27;1.20;;;5.20;93.30;;;;;;6165023;28;20230;-77
2021/03/22 15:20:35;;;;;;;2.93;1.07;;;5.40;91.40;;;;;;6181610;28;20224;-77
2021/03/22 15:23:37;;;;;;;3.33;1.43;;;5.50;90.20;;;;;;6181469;28;20241;-77
2021/03/22 15:26:40;;;;;;;4.47;1.30;;;5.60;89.20;;;;;;6181935;28;20579;-77
2021/03/22 15:29:42;;;;;;;3.00;1.60;;;5.70;82.70;;;;;;6182508;28;20321;-77
2021/03/22 15:32:45;;;;;;;2.50;1.37;;;5.70;82.60;;;;;;6182137;28;20705;-77
2021/03/22 15:36:04;;;;;;;2.03;1.07;;;5.90;83.70;;;;;;6182654;28;20230;-77
2021/03/22 15:39:05;;;;;;;4.17;2.27;;;6.10;85.50;;;;;;6181533;28;20257;-77
2021/03/22 15:42:08;;;;;;;6.43;2.30;;;6.10;81.00;;;;;;6164654;28;20294;-76
2021/03/22 15:45:21;;;;;;;3.67;1.80;;;6.00;83.80;;;;;;6182223;28;20272;-77
2021/03/22 15:48:23;;;;;;;5.97;2.17;;;5.90;80.90;;;;;;6165102;28;20223;-77
2021/03/22 15:51:26;;;;;;;4.03;2.20;;;5.80;83.80;;;;;;6165265;28;20231;-77
2021/03/22 15:54:28;;;;;;;2.97;1.97;;;5.70;83.90;;;;;;6182155;28;20764;-77
2021/03/22 15:57:29;;;;;;;2.43;1.47;;;5.70;84.40;;;;;;6165348;28;20235;-77
2021/03/22 16:00:34;;;;;;;4.97;2.30;;;5.60;86.20;;;;;;6165032;28;20648;-77
2021/03/22 16:03:38;;;;;;;5.40;2.43;;;5.40;95.10;;;;;;6164918;28;20236;-78
2021/03/22 16:06:40;;;;;;;4.23;2.70;;;4.50;99.90;;;;;;6166142;28;20225;-77
2021/03/22 16:09:42;;;;;;;3.87;2.80;;;3.80;99.90;;;;;;6182205;28;20722;-77
2021/03/22 16:12:45;;;;;;;6.10;2.90;;;3.30;99.90;;;;;;6182307;28;20217;-77
2021/03/22 16:15:47;;;;;;;6.27;2.37;;;3.20;99.90;;;;;;6164835;28;20233;-77
2021/03/22 16:18:50;;;;;;;3.43;2.30;;;3.10;99.90;;;;;;6169607;28;20229;-77
2021/03/22 16:21:53;;;;;;;8.00;2.50;;;3.20;99.90;;;;;;6168301;28;20699;-77
2021/03/22 16:24:55;;;;;;;3.47;2.13;;;3.20;99.90;;;;;;6169400;28;20333;-77
2021/03/22 16:28:01;;;;;;;5.27;2.43;;;3.20;99.90;;;;;;6185851;28;20256;-77